Star Mariella — V7KK3 — position and weather

sailwx.info

Track history (hours):
 
Tides and Currents Weather Stations Pressure Air Temp Water Temp Dewpoint Dewpoint Depression Visibility Wind Speed Wind Dir Waves Ship Positions

Star Mariella

Last reported at 2017-Apr-01 18:09 UTC. Time now 2017-Apr-27 20:49 UTC.
Position N 09°13' W 079°55'.
Warning: this ship's position is 26 days out of date.

Length 229 m; draft 11.9 m.

Type: Cargo ship. MMSI: 538002632.

Date/timePositionNaut miles runAvg speedWind from/ knotsBaromVisibWave heightAir tempDewpointWater temp
2017-Apr-01 18:09N 09°13' W 079°55'1 1.3
2017-Apr-01 17:31N 09°13' W 079°56'0 0.0
2017-Apr-01 17:01N 09°13' W 079°56'0 0.0
2017-Apr-01 16:28N 09°13' W 079°56'0 0.0
2017-Apr-01 15:52N 09°13' W 079°56'0 0.0
2017-Apr-01 11:55N 09°13' W 079°56'0 0.0
2017-Apr-01 11:25N 09°13' W 079°56'0 0.0
2017-Apr-01 09:40N 09°13' W 079°56'0 0.0
2017-Apr-01 09:31N 09°13' W 079°56'0 0.0
2017-Apr-01 06:49N 09°13' W 079°56'0 0.0
2017-Apr-01 03:31N 09°13' W 079°56'0 0.0
2017-Apr-01 02:19N 09°13' W 079°56'1 2.3
2017-Apr-01 01:58N 09°14' W 079°55'2 4.6
2017-Apr-01 01:30N 09°16' W 079°55'0 0.5
2017-Apr-01 01:00N 09°16' W 079°55'0 0.4
2017-Apr-01 00:30N 09°17' W 079°55'0 0.4
2017-Apr-01 00:00N 09°17' W 079°55'0 0.2
2017-Mar-31 23:30N 09°17' W 079°55'1 2.1
2017-Mar-31 23:00N 09°18' W 079°55'4 8.6
2017-Mar-31 22:30N 09°22' W 079°55'1 1.3
2017-Mar-31 22:00N 09°23' W 079°56'0 0.2
2017-Mar-31 21:27N 09°23' W 079°56'0 0.0
2017-Mar-31 21:00N 09°23' W 079°56'0 0.0
2017-Mar-31 20:30N 09°23' W 079°56'0 0.0
2017-Mar-31 20:00N 09°23' W 079°56'0 0.0
2017-Mar-31 19:30N 09°23' W 079°56'0 0.0
2017-Mar-31 19:00N 09°23' W 079°56'0 0.0
2017-Mar-31 18:27N 09°23' W 079°56'0 0.0
2017-Mar-31 18:00N 09°23' W 079°56'0 0.0
2017-Mar-31 17:30N 09°23' W 079°56'0 0.1
2017-Mar-31 17:00N 09°23' W 079°56'0 0.1
2017-Mar-31 16:30N 09°23' W 079°56'0 0.1
2017-Mar-31 16:00N 09°23' W 079°56'0 0.1
2017-Mar-31 15:30N 09°23' W 079°56'0 0.1
2017-Mar-31 14:57N 09°23' W 079°56'1 1.4
2017-Mar-31 14:00N 09°24' W 079°55'2 4.1
2017-Mar-31 13:30N 09°26' W 079°55'1 2.6
2017-Mar-31 12:59N 09°27' W 079°56'2 5.0
2017-Mar-31 12:29N 09°27' W 079°58'1 1.1
2017-Mar-31 11:57N 09°27' W 079°59'0 0.0
2017-Mar-31 11:24N 09°27' W 079°59'0 0.0
2017-Mar-31 11:00N 09°27' W 079°59'0 0.0
2017-Mar-31 10:30N 09°27' W 079°59'0 0.0
2017-Mar-31 10:00N 09°27' W 079°59'0 0.0
2017-Mar-31 09:21N 09°27' W 079°59'0 0.0
2017-Mar-31 08:57N 09°27' W 079°59'0 0.0
2017-Mar-31 08:30N 09°27' W 079°59'0 0.0
2017-Mar-31 08:00N 09°27' W 079°59'0 0.0
2017-Mar-31 07:30N 09°27' W 079°59'0 0.0
2017-Mar-31 07:00N 09°27' W 079°59'0 0.0
2017-Mar-31 06:30N 09°27' W 079°59'0 0.0
2017-Mar-31 05:54N 09°27' W 079°59'0 0.0
2017-Mar-31 05:21N 09°27' W 079°59'0 0.0
2017-Mar-31 04:36N 09°27' W 079°59'0 0.1
2017-Mar-31 04:27N 09°27' W 079°59'0 0.0
2017-Mar-31 03:27N 09°27' W 079°59'0 0.0
2017-Mar-31 02:33N 09°27' W 079°59'0 0.0
2017-Mar-31 01:33N 09°27' W 079°59'0 0.0
2017-Mar-31 00:33N 09°27' W 079°59'0 0.0
2017-Mar-30 23:33N 09°27' W 079°59'0 0.0
2017-Mar-30 22:21N 09°27' W 079°59'0 0.0
2017-Mar-30 21:33N 09°27' W 079°59'0 0.0
2017-Mar-30 20:30N 09°27' W 079°59'0 0.0
2017-Mar-30 19:30N 09°27' W 079°59'0 0.0
2017-Mar-30 18:33N 09°27' W 079°59'0 0.0
2017-Mar-30 17:33N 09°27' W 079°59'0 0.0
2017-Mar-30 16:27N 09°27' W 079°59'0 0.0
2017-Mar-30 14:27N 09°27' W 079°59'0 0.0
2017-Mar-30 13:24N 09°27' W 079°59'0 0.0
2017-Mar-30 12:27N 09°27' W 079°59'0 0.0
2017-Mar-30 11:30N 09°27' W 079°59'0 0.0
2017-Mar-30 10:27N 09°27' W 079°59'0 0.0
2017-Mar-30 08:21N 09°27' W 079°59'0 0.0
2017-Mar-30 07:30N 09°27' W 079°59'0 0.0
2017-Mar-30 06:33N 09°27' W 079°59'2 2.0
2017-Mar-30 05:33N 09°28' W 079°57'  
Track history (hours):
 
Tides and Currents Weather Stations Pressure Air Temp Water Temp Dewpoint Dewpoint Depression Visibility Wind Speed Wind Dir Waves Ship Positions

Star Mariella

Last reported at 2017-Apr-01 18:09 UTC. Time now 2017-Apr-27 20:49 UTC.
Position N 09°13' W 079°55'.
Warning: this ship's position is 26 days out of date.

Length 229 m; draft 11.9 m.

Type: Cargo ship. MMSI: 538002632.

Date/timePositionNaut miles runAvg speedWind from/ knotsBaromVisibWave heightAir tempDewpointWater temp
2017-Apr-01 18:09N 09°13' W 079°55'1 1.3
2017-Apr-01 17:31N 09°13' W 079°56'0 0.0
2017-Apr-01 17:01N 09°13' W 079°56'0 0.0
2017-Apr-01 16:28N 09°13' W 079°56'0 0.0
2017-Apr-01 15:52N 09°13' W 079°56'0 0.0
2017-Apr-01 11:55N 09°13' W 079°56'0 0.0
2017-Apr-01 11:25N 09°13' W 079°56'0 0.0
2017-Apr-01 09:40N 09°13' W 079°56'0 0.0
2017-Apr-01 09:31N 09°13' W 079°56'0 0.0
2017-Apr-01 06:49N 09°13' W 079°56'0 0.0
2017-Apr-01 03:31N 09°13' W 079°56'0 0.0
2017-Apr-01 02:19N 09°13' W 079°56'1 2.3
2017-Apr-01 01:58N 09°14' W 079°55'2 4.6
2017-Apr-01 01:30N 09°16' W 079°55'0 0.5
2017-Apr-01 01:00N 09°16' W 079°55'0 0.4
2017-Apr-01 00:30N 09°17' W 079°55'0 0.4
2017-Apr-01 00:00N 09°17' W 079°55'0 0.2
2017-Mar-31 23:30N 09°17' W 079°55'1 2.1
2017-Mar-31 23:00N 09°18' W 079°55'4 8.6
2017-Mar-31 22:30N 09°22' W 079°55'1 1.3
2017-Mar-31 22:00N 09°23' W 079°56'0 0.2
2017-Mar-31 21:27N 09°23' W 079°56'0 0.0
2017-Mar-31 21:00N 09°23' W 079°56'0 0.0
2017-Mar-31 20:30N 09°23' W 079°56'0 0.0
2017-Mar-31 20:00N 09°23' W 079°56'0 0.0
2017-Mar-31 19:30N 09°23' W 079°56'0 0.0
2017-Mar-31 19:00N 09°23' W 079°56'0 0.0
2017-Mar-31 18:27N 09°23' W 079°56'0 0.0
2017-Mar-31 18:00N 09°23' W 079°56'0 0.0
2017-Mar-31 17:30N 09°23' W 079°56'0 0.1
2017-Mar-31 17:00N 09°23' W 079°56'0 0.1
2017-Mar-31 16:30N 09°23' W 079°56'0 0.1
2017-Mar-31 16:00N 09°23' W 079°56'0 0.1
2017-Mar-31 15:30N 09°23' W 079°56'0 0.1
2017-Mar-31 14:57N 09°23' W 079°56'1 1.4
2017-Mar-31 14:00N 09°24' W 079°55'2 4.1
2017-Mar-31 13:30N 09°26' W 079°55'1 2.6
2017-Mar-31 12:59N 09°27' W 079°56'2 5.0
2017-Mar-31 12:29N 09°27' W 079°58'1 1.1
2017-Mar-31 11:57N 09°27' W 079°59'0 0.0
2017-Mar-31 11:24N 09°27' W 079°59'0 0.0
2017-Mar-31 11:00N 09°27' W 079°59'0 0.0
2017-Mar-31 10:30N 09°27' W 079°59'0 0.0
2017-Mar-31 10:00N 09°27' W 079°59'0 0.0
2017-Mar-31 09:21N 09°27' W 079°59'0 0.0
2017-Mar-31 08:57N 09°27' W 079°59'0 0.0
2017-Mar-31 08:30N 09°27' W 079°59'0 0.0
2017-Mar-31 08:00N 09°27' W 079°59'0 0.0
2017-Mar-31 07:30N 09°27' W 079°59'0 0.0
2017-Mar-31 07:00N 09°27' W 079°59'0 0.0
2017-Mar-31 06:30N 09°27' W 079°59'0 0.0
2017-Mar-31 05:54N 09°27' W 079°59'0 0.0
2017-Mar-31 05:21N 09°27' W 079°59'0 0.0
2017-Mar-31 04:36N 09°27' W 079°59'0 0.1
2017-Mar-31 04:27N 09°27' W 079°59'0 0.0
2017-Mar-31 03:27N 09°27' W 079°59'0 0.0
2017-Mar-31 02:33N 09°27' W 079°59'0 0.0
2017-Mar-31 01:33N 09°27' W 079°59'0 0.0
2017-Mar-31 00:33N 09°27' W 079°59'0 0.0
2017-Mar-30 23:33N 09°27' W 079°59'0 0.0
2017-Mar-30 22:21N 09°27' W 079°59'0 0.0
2017-Mar-30 21:33N 09°27' W 079°59'0 0.0
2017-Mar-30 20:30N 09°27' W 079°59'0 0.0
2017-Mar-30 19:30N 09°27' W 079°59'0 0.0
2017-Mar-30 18:33N 09°27' W 079°59'0 0.0
2017-Mar-30 17:33N 09°27' W 079°59'0 0.0
2017-Mar-30 16:27N 09°27' W 079°59'0 0.0
2017-Mar-30 14:27N 09°27' W 079°59'0 0.0
2017-Mar-30 13:24N 09°27' W 079°59'0 0.0
2017-Mar-30 12:27N 09°27' W 079°59'0 0.0
2017-Mar-30 11:30N 09°27' W 079°59'0 0.0
2017-Mar-30 10:27N 09°27' W 079°59'0 0.0
2017-Mar-30 08:21N 09°27' W 079°59'0 0.0
2017-Mar-30 07:30N 09°27' W 079°59'0 0.0
2017-Mar-30 06:33N 09°27' W 079°59'2 2.0
2017-Mar-30 05:33N 09°28' W 079°57'  

Dump ship's entire track history